createdAt,value
2018-09-06T00:00:20.065Z,15.63
2018-09-06T00:02:47.213Z,15.50
2018-09-06T00:05:14.302Z,15.43
2018-09-06T00:07:41.450Z,15.10
2018-09-06T00:10:08.563Z,14.67
2018-09-06T00:12:35.672Z,16.87
2018-09-06T00:15:02.917Z,16.20
2018-09-06T00:17:30.022Z,17.00
2018-09-06T00:19:57.221Z,16.53
2018-09-06T00:22:24.459Z,17.70
2018-09-06T00:24:51.678Z,17.90
2018-09-06T00:27:18.821Z,16.67
2018-09-06T00:29:45.966Z,16.40
2018-09-06T00:32:13.491Z,16.50
2018-09-06T00:34:40.612Z,17.23
2018-09-06T00:37:07.719Z,15.93
2018-09-06T00:39:34.926Z,15.90
2018-09-06T00:42:02.089Z,15.70
2018-09-06T00:44:29.247Z,15.73
2018-09-06T00:46:56.403Z,16.50
2018-09-06T00:49:23.645Z,15.33
2018-09-06T00:51:50.761Z,14.97
2018-09-06T00:54:17.875Z,15.47
2018-09-06T00:56:45.077Z,14.47
2018-09-06T00:59:12.666Z,14.47
2018-09-06T01:01:39.901Z,14.50
2018-09-06T01:04:07.030Z,14.67
2018-09-06T01:06:34.194Z,14.70
2018-09-06T01:09:01.309Z,15.73
2018-09-06T01:11:28.488Z,15.40
2018-09-06T01:13:55.676Z,15.10
2018-09-06T01:16:22.834Z,15.00
2018-09-06T01:18:49.946Z,15.40
2018-09-06T01:21:17.105Z,14.17
2018-09-06T01:23:44.423Z,14.67
2018-09-06T01:26:11.581Z,14.93
2018-09-06T01:28:38.701Z,15.20
2018-09-06T01:31:05.814Z,15.03
2018-09-06T01:33:32.965Z,14.87
2018-09-06T01:36:05.873Z,14.90
2018-09-06T01:38:33.111Z,15.40
2018-09-06T01:41:00.281Z,14.63
2018-09-06T01:43:27.501Z,14.67
2018-09-06T01:45:54.643Z,15.60
2018-09-06T01:48:21.794Z,15.37
2018-09-06T01:50:49.588Z,14.60
2018-09-06T01:53:18.036Z,15.03
2018-09-06T01:55:45.142Z,15.10
2018-09-06T02:00:46.140Z,14.90
2018-09-06T02:03:13.298Z,13.80
2018-09-06T02:05:40.451Z,13.93
2018-09-06T02:08:07.733Z,14.13
2018-09-06T02:10:35.227Z,14.80
2018-09-06T02:13:02.406Z,14.43
2018-09-06T02:15:29.570Z,15.67
2018-09-06T02:17:56.699Z,14.77
2018-09-06T02:20:23.958Z,15.10
2018-09-06T02:22:51.308Z,14.77
2018-09-06T02:25:18.473Z,14.93
2018-09-06T02:27:45.606Z,15.97
2018-09-06T02:30:12.754Z,16.40
2018-09-06T02:32:39.834Z,15.40
2018-09-06T02:35:07.022Z,14.83
2018-09-06T02:37:34.142Z,16.07
2018-09-06T02:40:01.278Z,15.70
2018-09-06T02:42:28.401Z,14.53
2018-09-06T02:44:55.702Z,16.70
2018-09-06T02:47:22.810Z,15.17
2018-09-06T02:49:55.593Z,14.20
2018-09-06T02:52:22.713Z,14.90
2018-09-06T02:54:49.837Z,16.20
2018-09-06T02:57:16.907Z,16.40
2018-09-06T02:59:45.775Z,16.63
2018-09-06T03:02:12.927Z,15.37
2018-09-06T03:04:40.109Z,16.20
2018-09-06T03:07:07.269Z,15.40
2018-09-06T03:09:34.486Z,15.60
2018-09-06T03:12:02.976Z,16.10
2018-09-06T03:14:30.147Z,14.17
2018-09-06T03:16:57.406Z,14.43
2018-09-06T03:19:24.569Z,15.47
2018-09-06T03:21:51.653Z,15.60
2018-09-06T03:24:18.782Z,14.90
2018-09-06T03:26:45.933Z,14.73
2018-09-06T03:29:13.012Z,14.40
2018-09-06T03:31:40.157Z,14.17
2018-09-06T03:34:07.688Z,15.00
2018-09-06T03:36:35.022Z,14.67
2018-09-06T03:39:02.221Z,15.30
2018-09-06T03:41:29.374Z,15.13
2018-09-06T03:43:56.588Z,14.30
2018-09-06T03:46:23.809Z,14.60
2018-09-06T03:48:50.989Z,15.20
2018-09-06T03:51:18.182Z,14.67
2018-09-06T03:53:45.290Z,14.77
2018-09-06T03:56:12.461Z,14.43
2018-09-06T03:58:39.560Z,14.20
2018-09-06T04:01:13.352Z,13.67
2018-09-06T04:03:40.496Z,15.07
2018-09-06T04:06:07.628Z,14.20
2018-09-06T04:08:34.773Z,15.60
2018-09-06T04:11:01.906Z,14.00
2018-09-06T04:13:29.010Z,14.00
2018-09-06T04:15:56.109Z,15.17
2018-09-06T04:18:23.309Z,14.47
2018-09-06T04:20:50.524Z,14.30
2018-09-06T04:23:17.725Z,13.87
2018-09-06T04:25:44.881Z,14.57
2018-09-06T04:28:12.111Z,14.00
2018-09-06T04:30:39.259Z,14.10
2018-09-06T04:33:06.414Z,15.30
2018-09-06T04:35:33.603Z,14.50
2018-09-06T04:38:00.639Z,14.70
2018-09-06T04:40:27.765Z,16.20
2018-09-06T04:42:54.910Z,14.50
2018-09-06T04:45:22.077Z,13.80
2018-09-06T04:47:49.195Z,13.97
2018-09-06T04:50:16.351Z,15.57
2018-09-06T04:52:43.466Z,15.30
2018-09-06T04:55:11.009Z,14.90
2018-09-06T04:57:38.116Z,14.10
2018-09-06T05:00:05.317Z,13.77
2018-09-06T05:02:32.514Z,13.47
2018-09-06T05:04:59.694Z,14.97
2018-09-06T05:07:26.854Z,13.47
2018-09-06T05:09:54.001Z,14.07
2018-09-06T05:12:21.300Z,14.10
2018-09-06T05:14:48.580Z,14.97
2018-09-06T05:17:15.686Z,16.77
2018-09-06T05:19:42.813Z,14.07
2018-09-06T05:22:09.917Z,16.10
2018-09-06T05:24:37.049Z,14.87
2018-09-06T05:27:04.189Z,14.20
2018-09-06T05:29:31.356Z,13.90
2018-09-06T05:31:58.472Z,14.37
2018-09-06T05:34:25.598Z,15.07
2018-09-06T05:36:52.756Z,15.07
2018-09-06T05:39:19.945Z,14.83
2018-09-06T05:41:47.104Z,16.00
2018-09-06T05:44:14.246Z,15.33
2018-09-06T05:46:41.679Z,15.30
2018-09-06T05:49:08.798Z,14.50
2018-09-06T05:51:36.191Z,14.80
2018-09-06T05:54:03.401Z,13.90
2018-09-06T05:56:30.583Z,14.60
2018-09-06T05:58:57.765Z,14.10
2018-09-06T06:01:24.907Z,13.83
2018-09-06T06:03:52.062Z,14.60
2018-09-06T06:06:19.229Z,15.13
2018-09-06T06:08:47.821Z,16.13
2018-09-06T06:11:15.023Z,15.87
2018-09-06T06:13:42.603Z,16.33
2018-09-06T06:16:10.146Z,16.20
2018-09-06T06:18:37.289Z,15.70
2018-09-06T06:21:04.450Z,16.30
2018-09-06T06:23:31.633Z,17.20
2018-09-06T06:25:58.795Z,18.13
2018-09-06T06:28:25.887Z,17.63
2018-09-06T06:30:52.954Z,16.47
2018-09-06T06:33:20.137Z,16.73
2018-09-06T06:35:47.257Z,17.27
2018-09-06T06:38:14.419Z,18.00
2018-09-06T06:40:41.538Z,17.27
2018-09-06T06:43:08.677Z,18.40
2018-09-06T06:45:35.812Z,16.40
2018-09-06T06:48:03.054Z,17.80
2018-09-06T06:50:30.333Z,17.70
2018-09-06T06:52:57.416Z,17.20
2018-09-06T06:55:24.874Z,18.23
2018-09-06T06:57:52.097Z,17.80
2018-09-06T07:00:20.719Z,18.47
2018-09-06T07:02:47.944Z,19.17
2018-09-06T07:05:15.074Z,22.73
2018-09-06T07:07:42.198Z,19.33
2018-09-06T07:10:09.337Z,20.00
2018-09-06T07:12:36.480Z,18.47
2018-09-06T07:15:03.884Z,19.20
2018-09-06T07:17:31.022Z,19.07
2018-09-06T07:19:58.213Z,19.10
2018-09-06T07:22:25.324Z,19.00
2018-09-06T07:24:52.469Z,17.77
2018-09-06T07:27:19.618Z,18.70
2018-09-06T07:29:46.817Z,19.60
2018-09-06T07:32:14.067Z,20.67
2018-09-06T07:34:41.202Z,20.70
2018-09-06T07:37:08.322Z,18.07
2018-09-06T07:39:35.724Z,18.20
2018-09-06T07:42:03.784Z,19.70
2018-09-06T07:44:30.961Z,18.37
2018-09-06T07:46:59.306Z,19.90
2018-09-06T07:49:26.766Z,19.83
2018-09-06T07:51:54.196Z,20.47
2018-09-06T07:54:21.394Z,18.23
2018-09-06T07:56:48.599Z,19.30
2018-09-06T07:59:17.777Z,18.90
2018-09-06T08:01:45.098Z,18.13
2018-09-06T08:04:12.207Z,19.70
2018-09-06T08:06:39.569Z,19.50
2018-09-06T08:09:08.750Z,19.97
2018-09-06T08:11:36.163Z,19.17
2018-09-06T08:14:03.330Z,19.20
2018-09-06T08:16:30.582Z,19.20
2018-09-06T08:18:58.104Z,18.80
2018-09-06T08:21:25.234Z,20.00
2018-09-06T08:23:52.338Z,19.13
2018-09-06T08:26:19.491Z,19.97
2018-09-06T08:28:46.626Z,20.13
2018-09-06T08:31:13.883Z,19.80
2018-09-06T08:33:41.024Z,19.43
2018-09-06T08:36:08.210Z,20.37
2018-09-06T08:38:35.362Z,21.40
2018-09-06T08:41:02.511Z,20.47
2018-09-06T08:43:29.713Z,19.37
2018-09-06T08:45:57.063Z,20.90
2018-09-06T08:48:24.234Z,18.93
2018-09-06T08:50:51.713Z,19.77
2018-09-06T08:53:18.907Z,20.00
2018-09-06T08:55:46.087Z,19.07
2018-09-06T08:58:13.299Z,18.73
2018-09-06T09:00:41.182Z,18.50
2018-09-06T09:03:09.001Z,20.00
2018-09-06T09:05:36.253Z,19.40
2018-09-06T09:08:03.520Z,19.50
2018-09-06T09:10:30.730Z,20.57
2018-09-06T09:12:58.626Z,18.40
2018-09-06T09:15:25.746Z,18.30
2018-09-06T09:17:52.932Z,19.20
2018-09-06T09:20:20.067Z,19.70
2018-09-06T09:22:47.238Z,17.47
2018-09-06T09:25:14.413Z,17.80
2018-09-06T09:27:41.582Z,16.87
2018-09-06T09:30:09.069Z,17.10
2018-09-06T09:32:36.208Z,16.97
2018-09-06T09:35:03.379Z,17.67
2018-09-06T09:37:30.590Z,17.90
2018-09-06T09:39:57.795Z,16.60
2018-09-06T09:42:26.438Z,17.17
2018-09-06T09:44:53.803Z,16.77
2018-09-06T09:49:50.084Z,16.70
2018-09-06T09:52:17.409Z,15.57
2018-09-06T09:54:44.611Z,15.60
2018-09-06T09:57:11.831Z,15.50
2018-09-06T09:59:39.020Z,15.07
2018-09-06T10:02:11.798Z,15.53
2018-09-06T10:06:45.680Z,15.83
2018-09-06T10:09:17.500Z,15.70
2018-09-06T10:11:44.798Z,16.27
2018-09-06T10:14:11.997Z,15.20
2018-09-06T10:16:39.208Z,15.03
2018-09-06T10:19:06.369Z,16.03
2018-09-06T10:21:33.508Z,14.70
2018-09-06T10:24:00.694Z,15.47
2018-09-06T10:26:27.858Z,14.53
2018-09-06T10:28:55.411Z,15.73
2018-09-06T10:31:22.521Z,15.17
2018-09-06T10:33:51.198Z,14.60
2018-09-06T10:36:18.300Z,14.20
2018-09-06T10:38:45.433Z,15.00
2018-09-06T10:41:12.606Z,14.83
2018-09-06T10:43:39.828Z,14.43
2018-09-06T10:46:06.961Z,14.83
2018-09-06T10:48:34.085Z,13.73
2018-09-06T10:51:02.710Z,15.23
2018-09-06T10:53:30.195Z,14.07
2018-09-06T10:55:57.417Z,15.10
2018-09-06T10:58:24.606Z,13.07
2018-09-06T11:00:56.374Z,13.87
2018-09-06T11:03:23.530Z,14.17
2018-09-06T11:05:50.692Z,13.87
2018-09-06T11:08:17.803Z,13.67
2018-09-06T11:11:28.002Z,13.73
2018-09-06T11:13:55.169Z,13.93
2018-09-06T11:16:22.389Z,13.70
2018-09-06T11:18:49.542Z,13.33
2018-09-06T11:21:16.853Z,14.20
2018-09-06T11:23:43.883Z,13.60
2018-09-06T11:26:11.042Z,13.50
2018-09-06T11:28:38.170Z,14.10
2018-09-06T11:31:05.307Z,13.60
2018-09-06T11:33:32.446Z,14.50
2018-09-06T11:35:59.585Z,14.00
2018-09-06T11:38:26.843Z,14.60
2018-09-06T11:40:55.449Z,15.07
2018-09-06T11:43:22.694Z,13.43
2018-09-06T11:45:51.689Z,13.87
2018-09-06T11:48:18.949Z,14.00
2018-09-06T11:50:46.152Z,12.70
2018-09-06T11:53:13.584Z,14.40
2018-09-06T11:55:40.740Z,14.87
2018-09-06T11:58:07.911Z,12.00
2018-09-06T12:00:37.287Z,12.53
2018-09-06T12:03:04.465Z,12.60
2018-09-06T12:05:32.562Z,12.83
2018-09-06T12:08:00.940Z,14.53
2018-09-06T12:10:28.201Z,13.20
2018-09-06T12:12:55.735Z,13.50
2018-09-06T12:15:22.911Z,13.90
2018-09-06T12:17:50.274Z,13.00
2018-09-06T12:20:17.401Z,13.33
2018-09-06T12:22:44.919Z,11.80
2018-09-06T12:25:12.164Z,13.13
2018-09-06T12:27:39.529Z,12.40
2018-09-06T12:30:06.766Z,11.83
2018-09-06T12:32:33.979Z,12.50
2018-09-06T12:35:01.168Z,11.70
2018-09-06T12:37:28.675Z,12.20
2018-09-06T12:39:58.302Z,11.83
2018-09-06T12:42:25.533Z,12.33
2018-09-06T12:44:53.491Z,11.53
2018-09-06T12:47:22.459Z,12.90
2018-09-06T12:49:49.739Z,12.77
2018-09-06T12:52:16.952Z,12.40
2018-09-06T12:54:44.180Z,12.63
2018-09-06T12:57:11.439Z,9.80
2018-09-06T12:59:38.587Z,8.33
2018-09-06T13:02:05.745Z,9.30
2018-09-06T13:04:32.988Z,10.20
2018-09-06T13:07:00.138Z,9.40
2018-09-06T13:09:27.391Z,9.10
2018-09-06T13:11:54.613Z,10.10
2018-09-06T13:14:21.790Z,9.20
2018-09-06T13:16:48.998Z,8.97
2018-09-06T13:19:16.158Z,8.60
2018-09-06T13:21:43.275Z,9.50
2018-09-06T13:24:10.524Z,8.13
2018-09-06T13:26:37.792Z,8.03
2018-09-06T13:29:05.623Z,8.43
2018-09-06T13:31:32.887Z,7.37
2018-09-06T13:34:00.087Z,7.83
2018-09-06T13:36:27.291Z,7.80
2018-09-06T13:38:54.461Z,8.77
2018-09-06T13:41:21.694Z,7.70
2018-09-06T13:43:50.259Z,7.70
2018-09-06T13:46:17.693Z,8.17
2018-09-06T13:48:44.973Z,8.23
2018-09-06T13:51:12.179Z,8.80
2018-09-06T13:53:39.361Z,8.43
2018-09-06T13:56:06.716Z,8.30
2018-09-06T13:58:34.095Z,9.00
2018-09-06T14:01:01.242Z,8.50
2018-09-06T14:03:28.478Z,7.83
2018-09-06T14:05:55.800Z,8.40
2018-09-06T14:08:22.879Z,8.20
2018-09-06T14:10:50.110Z,8.83
2018-09-06T14:13:17.239Z,9.63
2018-09-06T14:15:44.819Z,9.27
2018-09-06T14:18:12.269Z,9.20
2018-09-06T14:20:39.421Z,8.23
2018-09-06T14:23:06.529Z,7.97
2018-09-06T14:25:33.658Z,8.50
2018-09-06T14:28:00.928Z,8.47
2018-09-06T14:30:29.005Z,8.70
2018-09-06T14:32:56.485Z,9.60
2018-09-06T14:35:23.635Z,9.97
2018-09-06T14:37:50.945Z,10.43
2018-09-06T14:40:18.158Z,11.50
2018-09-06T14:42:45.308Z,10.50
2018-09-06T14:45:13.310Z,9.70
2018-09-06T14:47:40.441Z,10.50
2018-09-06T14:50:07.604Z,9.97
2018-09-06T14:52:34.858Z,10.03
2018-09-06T14:55:05.006Z,11.87
2018-09-06T14:57:32.191Z,11.37
2018-09-06T14:59:59.423Z,12.00
2018-09-06T15:02:26.732Z,11.43
2018-09-06T15:04:53.874Z,13.40
2018-09-06T15:07:21.033Z,12.87
2018-09-06T15:09:48.161Z,12.70
2018-09-06T15:12:16.604Z,13.30
2018-09-06T15:14:44.531Z,14.27
2018-09-06T15:17:12.435Z,14.97
2018-09-06T15:19:41.267Z,14.13
2018-09-06T15:22:08.454Z,15.07
2018-09-06T15:24:35.566Z,12.90
2018-09-06T15:27:02.758Z,12.50
2018-09-06T15:29:29.865Z,14.50
2018-09-06T15:31:57.034Z,13.73
2018-09-06T15:34:24.739Z,16.47
2018-09-06T15:36:51.967Z,13.97
2018-09-06T15:39:19.487Z,14.40
2018-09-06T15:41:46.753Z,13.73
2018-09-06T15:44:13.879Z,15.33
2018-09-06T15:46:41.049Z,14.53
2018-09-06T15:49:08.236Z,14.63
2018-09-06T15:51:35.579Z,15.10
2018-09-06T15:54:02.735Z,17.67
2018-09-06T15:56:29.879Z,16.53
2018-09-06T15:58:57.125Z,16.33
2018-09-06T16:01:24.408Z,15.70
2018-09-06T16:03:51.647Z,16.10
2018-09-06T16:06:18.802Z,14.77
2018-09-06T16:08:45.955Z,16.27
2018-09-06T16:11:13.078Z,16.50
2018-09-06T16:13:40.277Z,16.00
2018-09-06T16:16:07.405Z,16.57
2018-09-06T16:18:34.606Z,16.47
2018-09-06T16:21:01.706Z,14.60
2018-09-06T16:23:28.937Z,15.00
2018-09-06T16:25:56.077Z,14.60
2018-09-06T16:28:23.234Z,15.03
2018-09-06T16:30:50.522Z,15.20
2018-09-06T16:33:17.728Z,15.97
2018-09-06T16:35:44.878Z,15.30
2018-09-06T16:38:12.090Z,15.87
2018-09-06T16:40:39.210Z,15.27
2018-09-06T16:43:06.373Z,16.77
2018-09-06T16:45:33.636Z,17.60
2018-09-06T16:48:00.811Z,18.07
2018-09-06T16:50:28.059Z,17.87
2018-09-06T16:52:55.278Z,14.93
2018-09-06T16:55:27.710Z,16.60
2018-09-06T16:57:55.057Z,16.83
2018-09-06T17:00:22.246Z,15.10
2018-09-06T17:02:49.585Z,14.10
2018-09-06T17:05:16.746Z,14.23
2018-09-06T17:07:44.005Z,13.50
2018-09-06T17:10:11.215Z,15.43
2018-09-06T17:12:39.409Z,14.60
2018-09-06T17:15:07.319Z,14.63
2018-09-06T17:17:34.897Z,14.60
2018-09-06T17:20:03.194Z,14.40
2018-09-06T17:22:30.364Z,14.77
2018-09-06T17:24:57.934Z,15.17
2018-09-06T17:27:25.123Z,13.80
2018-09-06T17:29:52.669Z,14.30
2018-09-06T17:32:20.309Z,14.53
2018-09-06T17:34:47.471Z,13.10
2018-09-06T17:37:14.656Z,12.33
2018-09-06T17:39:41.939Z,14.00
2018-09-06T17:42:09.217Z,13.30
2018-09-06T17:44:36.433Z,14.03
2018-09-06T17:47:03.775Z,13.83
2018-09-06T17:49:30.998Z,13.10
2018-09-06T17:51:58.181Z,12.80
2018-09-06T17:54:25.462Z,13.83
2018-09-06T17:56:52.634Z,13.07
2018-09-06T17:59:19.918Z,14.30
2018-09-06T18:01:47.137Z,14.77
2018-09-06T18:04:14.430Z,14.37
2018-09-06T18:06:47.005Z,14.70
2018-09-06T18:09:14.414Z,12.70
2018-09-06T18:11:42.093Z,14.17
2018-09-06T18:14:09.643Z,14.40
2018-09-06T18:16:36.875Z,14.17
2018-09-06T18:19:04.077Z,14.20
2018-09-06T18:21:31.377Z,14.30
2018-09-06T18:23:58.699Z,13.83
2018-09-06T18:26:26.453Z,14.30
2018-09-06T18:28:53.720Z,13.57
2018-09-06T18:31:20.939Z,13.40
2018-09-06T18:33:48.183Z,12.70
2018-09-06T18:36:15.450Z,11.80
2018-09-06T18:38:43.432Z,12.80
2018-09-06T18:41:10.598Z,13.87
2018-09-06T18:43:37.878Z,12.70
2018-09-06T18:46:05.003Z,12.77
2018-09-06T18:48:32.206Z,12.67
2018-09-06T18:50:59.382Z,13.33
2018-09-06T18:53:26.830Z,13.70
2018-09-06T18:55:54.054Z,13.43
2018-09-06T18:58:21.755Z,13.70
2018-09-06T19:00:49.034Z,13.40
2018-09-06T19:03:16.217Z,15.47
2018-09-06T19:05:44.160Z,15.03
2018-09-06T19:08:11.457Z,13.63
2018-09-06T19:10:38.642Z,14.13
2018-09-06T19:13:05.997Z,14.70
2018-09-06T19:15:33.235Z,14.60
2018-09-06T19:18:00.494Z,14.23
2018-09-06T19:20:27.780Z,16.70
2018-09-06T19:22:55.114Z,15.80
2018-09-06T19:25:23.107Z,14.60
2018-09-06T19:27:50.673Z,14.67
2018-09-06T19:30:17.908Z,14.20
2018-09-06T19:32:45.062Z,14.97
2018-09-06T19:35:12.276Z,15.40
2018-09-06T19:37:39.446Z,13.40
2018-09-06T19:40:06.778Z,13.40
2018-09-06T19:42:34.078Z,12.40
2018-09-06T19:45:01.408Z,13.00
2018-09-06T19:47:28.591Z,13.23
2018-09-06T19:49:55.905Z,13.40
2018-09-06T19:52:23.071Z,13.60
2018-09-06T19:54:50.401Z,13.93
2018-09-06T19:57:17.654Z,13.40
2018-09-06T19:59:44.921Z,12.70
2018-09-06T20:02:12.137Z,13.77
2018-09-06T20:04:39.648Z,13.60
2018-09-06T20:07:06.858Z,17.20
2018-09-06T20:09:34.036Z,14.00
2018-09-06T20:12:01.201Z,13.97
2018-09-06T20:14:28.397Z,13.13
2018-09-06T20:16:56.380Z,13.40
2018-09-06T20:19:23.791Z,13.13
2018-09-06T20:21:51.719Z,14.10
2018-09-06T20:24:18.960Z,13.70
2018-09-06T20:26:47.166Z,12.53
2018-09-06T20:29:15.182Z,14.10
2018-09-06T20:31:42.400Z,13.93
2018-09-06T20:34:10.062Z,13.10
2018-09-06T20:36:37.287Z,12.57
2018-09-06T20:39:05.925Z,12.57
2018-09-06T20:41:33.429Z,14.87
2018-09-06T20:44:00.670Z,12.87
2018-09-06T20:46:27.888Z,13.60
2018-09-06T20:48:55.252Z,12.70
2018-09-06T20:51:22.544Z,12.83
2018-09-06T20:53:49.834Z,13.00
2018-09-06T20:56:17.090Z,14.63
2018-09-06T20:58:46.086Z,12.73
2018-09-06T21:01:13.325Z,12.90
2018-09-06T21:03:41.468Z,12.50
2018-09-06T21:06:08.840Z,12.93
2018-09-06T21:08:36.638Z,13.40
2018-09-06T21:11:07.562Z,13.47
2018-09-06T21:13:34.803Z,14.57
2018-09-06T21:16:02.542Z,13.47
2018-09-06T21:18:30.883Z,13.40
2018-09-06T21:20:58.107Z,12.23
2018-09-06T21:23:25.256Z,13.30
2018-09-06T21:25:52.507Z,13.67
2018-09-06T21:28:19.639Z,13.40
2018-09-06T21:30:46.838Z,12.90
2018-09-06T21:33:14.150Z,12.70
2018-09-06T21:35:41.332Z,12.97
2018-09-06T21:38:08.513Z,13.27
2018-09-06T21:40:35.824Z,12.63
2018-09-06T21:43:02.940Z,13.00
2018-09-06T21:45:30.546Z,12.70
2018-09-06T21:47:58.833Z,13.40
2018-09-06T21:50:26.350Z,13.30
2018-09-06T21:52:53.558Z,14.03
2018-09-06T21:55:20.886Z,13.53
2018-09-06T21:57:48.202Z,13.40
2018-09-06T22:00:15.518Z,13.33
2018-09-06T22:02:48.493Z,11.93
2018-09-06T22:05:15.646Z,13.93
2018-09-06T22:07:42.857Z,13.20
2018-09-06T22:10:10.879Z,12.67
2018-09-06T22:12:38.049Z,12.90
2018-09-06T22:15:05.226Z,13.63
2018-09-06T22:17:32.444Z,13.37
2018-09-06T22:19:59.590Z,13.90
2018-09-06T22:22:26.747Z,13.23
2018-09-06T22:24:53.982Z,13.50
2018-09-06T22:27:21.102Z,13.40
2018-09-06T22:29:48.249Z,13.70
2018-09-06T22:32:15.445Z,13.10
2018-09-06T22:34:42.637Z,13.30
2018-09-06T22:37:09.805Z,13.77
2018-09-06T22:39:36.999Z,12.43
2018-09-06T22:42:04.161Z,12.30
2018-09-06T22:44:31.335Z,13.00
2018-09-06T22:46:58.552Z,13.93
2018-09-06T22:49:25.717Z,13.73
2018-09-06T22:51:52.901Z,14.20
2018-09-06T22:54:20.074Z,14.43
2018-09-06T22:56:47.540Z,14.13
2018-09-06T22:59:14.801Z,14.60
2018-09-06T23:01:41.969Z,14.10
2018-09-06T23:04:09.120Z,13.57
2018-09-06T23:06:36.345Z,13.53
2018-09-06T23:09:06.470Z,14.50
2018-09-06T23:11:34.659Z,16.30
2018-09-06T23:14:01.781Z,15.97
2018-09-06T23:16:28.916Z,16.80
2018-09-06T23:18:56.018Z,15.93
2018-09-06T23:21:23.153Z,16.43
2018-09-06T23:23:50.242Z,17.07
2018-09-06T23:26:17.366Z,17.23
2018-09-06T23:28:44.493Z,17.20
2018-09-06T23:31:11.653Z,19.13
2018-09-06T23:33:38.810Z,18.03
2018-09-06T23:36:05.910Z,18.33
2018-09-06T23:38:33.083Z,20.70
2018-09-06T23:41:00.248Z,19.60
2018-09-06T23:43:27.466Z,18.97
2018-09-06T23:45:55.877Z,19.30
2018-09-06T23:48:24.413Z,18.40
2018-09-06T23:50:52.101Z,19.10
2018-09-06T23:53:19.297Z,18.90
2018-09-06T23:55:46.417Z,19.77
2018-09-06T23:58:13.581Z,19.93
